»·PEaware :: N717TS KSBP-KSNA

N717TS :: KSBP-KSNA

FLIGHT INFORMATION

Flight Status: Arrived
Operator: Privately registered:
United States
More flights under this callsign
Pilot: Ty S. (2873)
Aircraft: CIRRUS SR-22
(SR22)
More flights by this aircraft type
Origin: KSBP San Luis Co Regl
United States
Destination: KSNA John Wayne-Orange Co
United States
More flights between these airports :: More routes between these airports
Route: RZS V186 BAYJY V363 POXKU V8 SLI
File this flight plan on PilotEdge
Remarks:
Altitude:
(Current/Filed)
7,000ft
Speed:
(Current/Filed)
170kts
Departed: 05-Jun-20 05:48 PM
Arrived: 05-Jun-20 07:05 PM
Distance/Time
Traveled:
166nm/1:17
Distance/Time
To Go:
Arrived

Flight Plot

Page will automatically refresh every two minutes.


Map Options




Map Legend


Flown Route
Filed Route
Departure Airport
Arrival Airport
Navaid (VOR, NDB)
Fix

Horizontal Profiles

Position Reports

Time Latitude Longitude Heading Altitude Ground
Speed
05-Jun-20 17:23 35.236337 -120.636434 212 216ft 0kts
05-Jun-20 17:24 35.236337 -120.636434 212 216ft 0kts
05-Jun-20 17:25 35.236337 -120.636434 212 216ft 0kts
05-Jun-20 17:26 35.236337 -120.636434 212 216ft 0kts
05-Jun-20 17:27 35.236337 -120.636434 212 216ft 0kts
05-Jun-20 17:28 35.236337 -120.636434 212 216ft 0kts
05-Jun-20 17:29 35.236337 -120.636434 212 216ft 0kts
05-Jun-20 17:30 35.236337 -120.636434 212 216ft 0kts
05-Jun-20 17:31 35.236337 -120.636434 212 216ft 0kts
05-Jun-20 17:32 35.236337 -120.636434 212 216ft 0kts
05-Jun-20 17:33 35.236337 -120.636434 212 216ft 0kts
05-Jun-20 17:34 35.236337 -120.636434 212 216ft 0kts
05-Jun-20 17:35 35.236337 -120.636434 212 216ft 0kts
05-Jun-20 17:36 35.236337 -120.636434 212 216ft 0kts
05-Jun-20 17:37 35.236337 -120.636434 212 216ft 0kts
05-Jun-20 17:38 35.236337 -120.636434 212 216ft 0kts
05-Jun-20 17:39 35.236337 -120.636434 212 216ft 0kts
05-Jun-20 17:40 35.236326 -120.636440 202 216ft 1kts
05-Jun-20 17:41 35.235854 -120.636418 164 216ft 7kts
05-Jun-20 17:42 35.233861 -120.633048 127 216ft 15kts
05-Jun-20 17:43 35.233393 -120.632320 152 216ft 5kts
05-Jun-20 17:44 35.233147 -120.632380 214 217ft 5kts
05-Jun-20 17:45 35.232989 -120.633371 307 216ft 0kts
05-Jun-20 17:46 35.232993 -120.633377 306 216ft 2kts
05-Jun-20 17:47 35.246316 -120.655416 307 979ft 122kts
05-Jun-20 17:48 35.268057 -120.688236 306 2426ft 125kts
05-Jun-20 17:49 35.293872 -120.713656 12 3767ft 133kts
05-Jun-20 17:50 35.318164 -120.678292 52 5018ft 139kts
05-Jun-20 17:51 35.322984 -120.635673 120 6274ft 145kts
05-Jun-20 17:52 35.300471 -120.591648 121 7019ft 166kts
05-Jun-20 17:53 35.274735 -120.541685 121 7019ft 177kts
05-Jun-20 17:54 35.248392 -120.490561 121 7019ft 178kts
05-Jun-20 17:55 35.220704 -120.440363 131 7020ft 177kts
05-Jun-20 17:56 35.187677 -120.395462 131 7022ft 177kts
05-Jun-20 17:57 35.154312 -120.350884 131 7025ft 178kts
05-Jun-20 17:58 35.120752 -120.306574 132 7026ft 178kts
05-Jun-20 17:59 35.075776 -120.286957 172 7027ft 177kts
05-Jun-20 18:00 35.026915 -120.278339 172 7028ft 178kts
05-Jun-20 18:01 34.977873 -120.269799 172 7028ft 178kts
05-Jun-20 18:02 34.928828 -120.261387 172 7028ft 178kts
05-Jun-20 18:03 34.883230 -120.253677 172 7026ft 177kts
05-Jun-20 18:04 34.834204 -120.245448 172 7022ft 177kts
05-Jun-20 18:05 34.785364 -120.237207 172 7016ft 177kts
05-Jun-20 18:06 34.736603 -120.228939 172 7011ft 176kts
05-Jun-20 18:07 34.703866 -120.193974 111 7008ft 174kts
05-Jun-20 18:08 34.682140 -120.141089 117 7008ft 175kts
05-Jun-20 18:09 34.658397 -120.089338 117 7008ft 174kts
05-Jun-20 18:10 34.634485 -120.037931 117 7008ft 174kts
05-Jun-20 18:11 34.610541 -119.986593 118 7008ft 174kts
05-Jun-20 18:12 34.586548 -119.935228 118 7004ft 175kts
05-Jun-20 18:13 34.562442 -119.883711 118 7000ft 175kts
05-Jun-20 18:14 34.538351 -119.832301 119 6996ft 175kts
05-Jun-20 18:15 34.514152 -119.780742 119 6992ft 175kts
05-Jun-20 18:16 34.487831 -119.730924 123 6991ft 175kts
05-Jun-20 18:17 34.461153 -119.681687 123 6991ft 175kts
05-Jun-20 18:18 34.434401 -119.632414 123 6991ft 175kts
05-Jun-20 18:19 34.407530 -119.582995 123 6991ft 175kts
05-Jun-20 18:20 34.380697 -119.533725 123 6990ft 175kts
05-Jun-20 18:21 34.353836 -119.484473 122 6988ft 175kts
05-Jun-20 18:22 34.327091 -119.435489 122 6985ft 174kts
05-Jun-20 18:23 34.320470 -119.380177 85 7020ft 169kts
05-Jun-20 18:24 34.323924 -119.323769 83 7019ft 169kts
05-Jun-20 18:25 34.328111 -119.267219 82 7018ft 172kts
05-Jun-20 18:26 34.332500 -119.209033 82 7015ft 174kts
05-Jun-20 18:27 34.336892 -119.150465 82 7013ft 174kts
05-Jun-20 18:28 34.341250 -119.091983 82 7011ft 175kts
05-Jun-20 18:29 34.345598 -119.033254 82 7009ft 175kts
05-Jun-20 18:30 34.349914 -118.974442 82 7009ft 173kts
05-Jun-20 18:31 34.354168 -118.917190 86 7008ft 167kts
05-Jun-20 18:32 34.349777 -118.862449 112 7008ft 165kts
05-Jun-20 18:33 34.332632 -118.810671 114 7008ft 167kts
05-Jun-20 18:34 34.314861 -118.758388 114 7010ft 168kts
05-Jun-20 18:35 34.296981 -118.706011 114 7011ft 167kts
05-Jun-20 18:36 34.279232 -118.654122 113 7010ft 167kts
05-Jun-20 18:37 34.261461 -118.602250 113 7006ft 166kts
05-Jun-20 18:38 34.243715 -118.550537 113 7001ft 166kts
05-Jun-20 18:39 34.225976 -118.498903 113 7002ft 166kts
05-Jun-20 18:40 34.210074 -118.447283 111 7005ft 166kts
05-Jun-20 18:41 34.194185 -118.394929 111 7007ft 166kts
05-Jun-20 18:42 34.178493 -118.343260 111 7008ft 166kts
05-Jun-20 18:43 34.162661 -118.291218 111 7008ft 166kts
05-Jun-20 18:44 34.146662 -118.238688 111 7007ft 167kts
05-Jun-20 18:45 34.130609 -118.186071 111 7005ft 167kts
05-Jun-20 18:46 34.114490 -118.133369 111 7003ft 167kts
05-Jun-20 18:47 34.098234 -118.080348 112 7000ft 168kts
05-Jun-20 18:48 34.082024 -118.027539 112 7002ft 168kts
05-Jun-20 18:49 34.065705 -117.974463 112 7006ft 168kts
05-Jun-20 18:50 34.049346 -117.921344 112 7008ft 169kts
05-Jun-20 18:52 34.032911 -117.868078 112 7010ft 170kts
05-Jun-20 18:53 34.016331 -117.814489 112 6931ft 173kts
05-Jun-20 18:54 33.982022 -117.785176 178 6410ft 165kts
05-Jun-20 18:55 33.936213 -117.784084 179 5904ft 164kts
05-Jun-20 18:56 33.891684 -117.783152 179 5411ft 163kts
05-Jun-20 18:57 33.851489 -117.796818 240 5010ft 158kts
05-Jun-20 18:58 33.835985 -117.846613 227 4535ft 157kts
05-Jun-20 18:59 33.795800 -117.841696 132 4032ft 158kts
05-Jun-20 19:00 33.766356 -117.803058 155 3552ft 155kts
05-Jun-20 19:01 33.734092 -117.816784 220 1629ft 114kts
05-Jun-20 19:02 33.713624 -117.840012 221 784ft 93kts
05-Jun-20 19:03 33.694811 -117.856618 207 396ft 75kts
05-Jun-20 19:04 33.677489 -117.867689 206 61ft 46kts
05-Jun-20 19:05 33.673910 -117.867571 120 60ft 12kts
05-Jun-20 19:06 33.672537 -117.867098 203 60ft 0kts

Navigation Log

Ident Type
Flight plan parsing failed, navigation log unavailable